createdAt,value
2023-02-11T00:00:22.192Z,-1.13
2023-02-11T00:03:25.451Z,-1.18
2023-02-11T00:06:29.577Z,-1.09
2023-02-11T00:09:31.981Z,-1.10
2023-02-11T00:12:35.888Z,-1.08
2023-02-11T00:15:38.746Z,-1.55
2023-02-11T00:18:41.035Z,-1.52
2023-02-11T00:21:45.173Z,-1.24
2023-02-11T00:24:47.307Z,-1.41
2023-02-11T00:27:52.053Z,-1.27
2023-02-11T00:30:56.260Z,-1.52
2023-02-11T00:34:01.801Z,-1.53
2023-02-11T00:37:08.039Z,-1.41
2023-02-11T00:40:10.557Z,-1.52
2023-02-11T00:43:12.819Z,-1.41
2023-02-11T00:46:16.151Z,-1.42
2023-02-11T00:49:19.391Z,-1.23
2023-02-11T00:52:21.461Z,-1.21
2023-02-11T00:55:23.810Z,-1.21
2023-02-11T00:58:25.865Z,-1.25
2023-02-11T01:01:28.239Z,-1.21
2023-02-11T01:04:30.478Z,-1.32
2023-02-11T01:07:32.427Z,-1.37
2023-02-11T01:10:34.479Z,-1.34
2023-02-11T01:13:40.361Z,-1.25
2023-02-11T01:16:42.353Z,-1.31
2023-02-11T01:19:44.519Z,-1.44
2023-02-11T01:22:46.542Z,-1.54
2023-02-11T01:25:53.040Z,-1.45
2023-02-11T01:28:55.509Z,-1.71
2023-02-11T01:31:58.008Z,-1.61
2023-02-11T01:35:00.122Z,-1.61
2023-02-11T01:38:02.148Z,-1.59
2023-02-11T01:41:10.451Z,-1.58
2023-02-11T01:44:44.843Z,-1.37
2023-02-11T01:47:46.801Z,-1.39
2023-02-11T01:50:53.141Z,-1.52
2023-02-11T01:54:15.009Z,-1.66
2023-02-11T01:57:29.900Z,-1.57
2023-02-11T02:00:37.274Z,-1.75
2023-02-11T02:03:44.482Z,-1.65
2023-02-11T02:06:53.713Z,-1.56
2023-02-11T02:10:03.680Z,-1.48
2023-02-11T02:13:05.732Z,-1.50
2023-02-11T02:16:16.843Z,-1.57
2023-02-11T02:19:42.467Z,-1.53
2023-02-11T02:22:56.741Z,-1.82
2023-02-11T02:26:14.823Z,-1.76
2023-02-11T02:29:54.861Z,-1.74
2023-02-11T02:33:41.204Z,-1.93
2023-02-11T02:37:01.366Z,-1.86
2023-02-11T02:40:11.883Z,-1.92
2023-02-11T02:43:15.494Z,-1.96
2023-02-11T02:46:30.482Z,-1.84
2023-02-11T02:49:32.364Z,-1.89
2023-02-11T02:53:12.414Z,-1.82
2023-02-11T02:56:18.321Z,-1.83
2023-02-11T02:59:53.661Z,-1.90
2023-02-11T03:03:44.488Z,-1.91
2023-02-11T03:06:55.307Z,-2.03
2023-02-11T03:10:22.713Z,-2.04
2023-02-11T03:13:29.982Z,-2.04
2023-02-11T03:16:39.255Z,-1.94
2023-02-11T03:19:44.231Z,-2.03
2023-02-11T03:23:20.992Z,-2.20
2023-02-11T03:26:35.203Z,-2.15
2023-02-11T03:29:51.789Z,-2.31
2023-02-11T03:33:05.730Z,-2.26
2023-02-11T03:36:20.355Z,-2.03
2023-02-11T03:39:30.893Z,-2.25
2023-02-11T03:42:41.739Z,-2.02
2023-02-11T03:45:49.538Z,-2.05
2023-02-11T03:48:59.023Z,-2.00
2023-02-11T03:52:03.518Z,-2.04
2023-02-11T03:55:13.384Z,-2.16
2023-02-11T03:58:16.968Z,-2.19
2023-02-11T04:01:20.706Z,-2.21
2023-02-11T04:04:22.816Z,-1.98
2023-02-11T04:07:25.706Z,-2.07
2023-02-11T04:10:27.717Z,-2.23
2023-02-11T04:13:30.614Z,-2.22
2023-02-11T04:16:32.701Z,-2.53
2023-02-11T04:19:35.430Z,-2.47
2023-02-11T04:22:39.129Z,-2.60
2023-02-11T04:25:41.075Z,-2.69
2023-02-11T04:28:43.033Z,-2.84
2023-02-11T04:31:45.819Z,-2.94
2023-02-11T04:34:48.530Z,-2.92
2023-02-11T04:37:50.755Z,-2.91
2023-02-11T04:40:55.945Z,-3.20
2023-02-11T04:43:58.143Z,-3.01
2023-02-11T04:47:00.135Z,-3.00
2023-02-11T04:50:02.282Z,-2.97
2023-02-11T04:53:04.371Z,-2.95
2023-02-11T04:56:08.350Z,-2.93
2023-02-11T04:59:11.621Z,-2.90
2023-02-11T05:02:13.935Z,-2.80
2023-02-11T05:05:16.101Z,-2.97
2023-02-11T05:08:18.133Z,-2.93
2023-02-11T05:11:23.256Z,-3.14
2023-02-11T05:14:25.459Z,-3.02
2023-02-11T05:17:27.535Z,-3.14
2023-02-11T05:20:30.618Z,-2.87
2023-02-11T05:23:35.634Z,-2.94
2023-02-11T05:26:40.309Z,-2.82
2023-02-11T05:29:42.776Z,-2.86
2023-02-11T05:32:44.794Z,-3.06
2023-02-11T05:35:46.823Z,-2.94
2023-02-11T05:38:48.895Z,-2.99
2023-02-11T05:41:52.409Z,-3.07
2023-02-11T05:44:54.243Z,-3.00
2023-02-11T05:47:57.844Z,-2.98
2023-02-11T05:51:00.081Z,-2.85
2023-02-11T05:54:02.098Z,-2.73
2023-02-11T05:57:04.367Z,-2.95
2023-02-11T06:00:08.707Z,-3.07
2023-02-11T06:03:10.739Z,-2.84
2023-02-11T06:06:12.879Z,-2.74
2023-02-11T06:09:15.477Z,-2.71
2023-02-11T06:12:17.598Z,-2.91
2023-02-11T06:15:19.573Z,-2.79
2023-02-11T06:18:21.527Z,-3.11
2023-02-11T06:21:33.532Z,-3.12
2023-02-11T06:25:00.469Z,-3.03
2023-02-11T06:28:06.633Z,-3.09
2023-02-11T06:31:09.803Z,-2.87
2023-02-11T06:34:14.866Z,-2.82
2023-02-11T06:37:16.828Z,-2.76
2023-02-11T06:40:18.824Z,-2.79
2023-02-11T06:43:21.127Z,-2.92
2023-02-11T06:46:23.485Z,-2.61
2023-02-11T06:49:25.840Z,-2.65
2023-02-11T06:52:27.862Z,-2.87
2023-02-11T06:55:29.912Z,-2.89
2023-02-11T06:58:32.714Z,-2.80
2023-02-11T07:01:35.155Z,-2.82
2023-02-11T07:04:37.334Z,-2.65
2023-02-11T07:07:39.375Z,-2.62
2023-02-11T07:10:41.818Z,-2.65
2023-02-11T07:13:43.944Z,-2.36
2023-02-11T07:16:45.826Z,-2.48
2023-02-11T07:19:47.792Z,-2.26
2023-02-11T07:22:50.189Z,-2.30
2023-02-11T07:25:52.885Z,-2.19
2023-02-11T07:28:55.285Z,-1.76
2023-02-11T07:31:57.893Z,-1.45
2023-02-11T07:35:00.229Z,-1.26
2023-02-11T07:38:02.944Z,-1.20
2023-02-11T07:41:11.396Z,-1.21
2023-02-11T07:44:15.806Z,-1.16
2023-02-11T07:47:18.549Z,-0.83
2023-02-11T07:50:20.930Z,-0.44
2023-02-11T07:53:22.955Z,-0.42
2023-02-11T07:56:25.357Z,-0.37
2023-02-11T07:59:27.608Z,-0.22
2023-02-11T08:02:29.807Z,-0.10
2023-02-11T08:05:31.953Z,-0.11
2023-02-11T08:08:35.491Z,0.08
2023-02-11T08:11:37.696Z,0.38
2023-02-11T08:14:40.016Z,0.73
2023-02-11T08:17:42.052Z,1.00
2023-02-11T08:20:45.015Z,0.88
2023-02-11T08:23:47.467Z,1.10
2023-02-11T08:26:49.838Z,1.15
2023-02-11T08:29:52.169Z,1.06
2023-02-11T08:32:54.173Z,1.03
2023-02-11T08:35:56.096Z,1.15
2023-02-11T08:39:16.108Z,1.21
2023-02-11T08:42:20.004Z,1.32
2023-02-11T08:45:22.160Z,1.49
2023-02-11T08:48:25.727Z,1.47
2023-02-11T08:51:31.551Z,1.61
2023-02-11T08:54:33.677Z,1.68
2023-02-11T08:57:35.928Z,1.84
2023-02-11T09:00:38.451Z,1.91
2023-02-11T09:03:40.650Z,2.02
2023-02-11T09:06:42.604Z,1.70
2023-02-11T09:09:44.656Z,1.62
2023-02-11T09:12:47.216Z,1.49
2023-02-11T09:15:49.326Z,1.44
2023-02-11T09:18:51.453Z,1.42
2023-02-11T09:21:53.262Z,1.58
2023-02-11T09:24:55.649Z,1.61
2023-02-11T09:27:58.226Z,1.60
2023-02-11T09:31:09.073Z,1.70
2023-02-11T09:34:12.016Z,1.89
2023-02-11T09:37:14.574Z,1.96
2023-02-11T09:40:17.354Z,2.05
2023-02-11T09:43:29.444Z,2.16
2023-02-11T09:46:37.722Z,2.31
2023-02-11T09:49:48.572Z,2.45
2023-02-11T09:53:11.088Z,2.59
2023-02-11T09:56:15.526Z,2.58
2023-02-11T09:59:18.674Z,2.50
2023-02-11T10:02:29.018Z,2.55
2023-02-11T10:05:52.437Z,2.65
2023-02-11T10:09:18.855Z,2.91
2023-02-11T10:13:04.052Z,2.85
2023-02-11T10:16:21.292Z,3.14
2023-02-11T10:19:41.317Z,3.31
2023-02-11T10:22:54.052Z,3.29
2023-02-11T10:25:57.833Z,3.27
2023-02-11T10:29:05.622Z,3.44
2023-02-11T10:32:25.796Z,3.45
2023-02-11T10:35:27.738Z,3.54
2023-02-11T10:38:34.210Z,3.64
2023-02-11T10:41:41.969Z,3.63
2023-02-11T10:44:58.040Z,3.70
2023-02-11T10:48:01.848Z,3.78
2023-02-11T10:51:34.244Z,3.95
2023-02-11T10:54:36.530Z,4.25
2023-02-11T10:57:50.465Z,4.17
2023-02-11T11:00:55.776Z,4.56
2023-02-11T11:04:00.290Z,4.55
2023-02-11T11:07:30.835Z,4.85
2023-02-11T11:10:45.188Z,4.77
2023-02-11T11:13:58.212Z,4.94
2023-02-11T11:17:00.179Z,4.76
2023-02-11T11:20:20.675Z,4.99
2023-02-11T11:23:24.847Z,4.74
2023-02-11T11:26:39.653Z,4.86
2023-02-11T11:29:55.449Z,4.77
2023-02-11T11:32:58.740Z,4.95
2023-02-11T11:36:07.967Z,4.83
2023-02-11T11:39:16.141Z,4.88
2023-02-11T11:42:25.780Z,4.96
2023-02-11T11:45:28.123Z,5.36
2023-02-11T11:48:39.545Z,5.70
2023-02-11T11:51:47.903Z,6.05
2023-02-11T11:54:59.044Z,6.27
2023-02-11T11:58:01.944Z,6.31
2023-02-11T12:01:19.255Z,6.29
2023-02-11T12:04:48.174Z,6.43
2023-02-11T12:08:08.037Z,6.34
2023-02-11T12:11:12.710Z,6.51
2023-02-11T12:14:33.057Z,6.39
2023-02-11T12:17:47.207Z,6.48
2023-02-11T12:21:14.062Z,6.33
2023-02-11T12:24:33.214Z,6.18
2023-02-11T12:27:50.103Z,6.38
2023-02-11T12:31:04.543Z,6.29
2023-02-11T12:34:42.106Z,6.40
2023-02-11T12:38:05.774Z,6.59
2023-02-11T12:41:47.011Z,6.91
2023-02-11T12:45:07.774Z,6.96
2023-02-11T12:48:13.098Z,6.93
2023-02-11T12:51:34.216Z,6.95
2023-02-11T12:54:54.254Z,6.38
2023-02-11T12:57:59.487Z,6.35
2023-02-11T13:01:08.391Z,6.49
2023-02-11T13:04:24.102Z,6.41
2023-02-11T13:07:33.357Z,6.25
2023-02-11T13:10:38.342Z,6.69
2023-02-11T13:14:04.558Z,7.13
2023-02-11T13:17:17.544Z,7.28
2023-02-11T13:20:33.066Z,7.27
2023-02-11T13:24:09.850Z,7.36
2023-02-11T13:27:29.969Z,7.63
2023-02-11T13:30:35.923Z,7.43
2023-02-11T13:33:44.349Z,7.38
2023-02-11T13:36:55.192Z,7.43
2023-02-11T13:40:04.054Z,7.44
2023-02-11T13:43:19.204Z,7.46
2023-02-11T13:46:21.858Z,7.34
2023-02-11T13:49:40.797Z,7.30
2023-02-11T13:52:43.146Z,7.26
2023-02-11T13:55:47.692Z,7.27
2023-02-11T13:58:59.046Z,6.92
2023-02-11T14:02:47.438Z,7.05
2023-02-11T14:06:28.781Z,6.85
2023-02-11T14:09:37.416Z,7.00
2023-02-11T14:12:39.577Z,7.03
2023-02-11T14:15:41.539Z,6.98
2023-02-11T14:18:50.045Z,6.80
2023-02-11T14:21:52.184Z,6.81
2023-02-11T14:25:01.734Z,6.95
2023-02-11T14:28:16.841Z,6.86
2023-02-11T14:31:25.138Z,6.87
2023-02-11T14:35:05.179Z,6.87
2023-02-11T14:38:37.763Z,7.00
2023-02-11T14:41:42.940Z,7.00
2023-02-11T14:44:46.059Z,6.86
2023-02-11T14:48:03.501Z,6.91
2023-02-11T14:51:13.857Z,6.76
2023-02-11T14:54:22.798Z,6.73
2023-02-11T14:57:25.419Z,6.63
2023-02-11T15:00:27.765Z,6.57
2023-02-11T15:03:48.148Z,6.45
2023-02-11T15:06:50.777Z,6.28
2023-02-11T15:09:57.331Z,6.05
2023-02-11T15:13:02.396Z,6.26
2023-02-11T15:16:11.271Z,6.10
2023-02-11T15:19:41.203Z,6.21
2023-02-11T15:22:46.193Z,6.28
2023-02-11T15:25:56.514Z,6.31
2023-02-11T15:29:01.559Z,6.44
2023-02-11T15:32:07.189Z,6.46
2023-02-11T15:35:12.006Z,6.54
2023-02-11T15:38:14.468Z,6.55
2023-02-11T15:41:38.210Z,6.47
2023-02-11T15:44:40.243Z,6.33
2023-02-11T15:47:51.603Z,6.24
2023-02-11T15:50:58.752Z,6.05
2023-02-11T15:54:17.076Z,5.96
2023-02-11T15:57:21.811Z,5.96
2023-02-11T16:00:28.894Z,6.01
2023-02-11T16:03:33.728Z,5.93
2023-02-11T16:06:43.302Z,5.80
2023-02-11T16:09:45.595Z,5.62
2023-02-11T16:12:53.185Z,5.65
2023-02-11T16:16:01.734Z,5.67
2023-02-11T16:19:06.205Z,5.55
2023-02-11T16:22:15.937Z,5.73
2023-02-11T16:25:21.249Z,5.76
2023-02-11T16:28:23.817Z,5.69
2023-02-11T16:31:36.774Z,5.74
2023-02-11T16:34:39.017Z,5.43
2023-02-11T16:37:41.188Z,5.55
2023-02-11T16:40:45.004Z,5.70
2023-02-11T16:43:47.699Z,5.50
2023-02-11T16:46:49.960Z,5.60
2023-02-11T16:49:52.866Z,5.54
2023-02-11T16:52:57.500Z,5.55
2023-02-11T16:55:59.674Z,5.55
2023-02-11T16:59:02.081Z,5.46
2023-02-11T17:02:04.043Z,5.46
2023-02-11T17:05:15.515Z,5.38
2023-02-11T17:08:17.731Z,5.40
2023-02-11T17:11:19.994Z,5.39
2023-02-11T17:14:21.902Z,5.28
2023-02-11T17:17:24.123Z,5.19
2023-02-11T17:20:26.601Z,5.23
2023-02-11T17:23:28.825Z,5.23
2023-02-11T17:26:30.905Z,5.30
2023-02-11T17:29:36.830Z,5.22
2023-02-11T17:32:38.951Z,5.18
2023-02-11T17:35:41.222Z,5.30
2023-02-11T17:38:44.729Z,5.32
2023-02-11T17:41:47.695Z,5.34
2023-02-11T17:44:49.644Z,5.26
2023-02-11T17:47:52.393Z,5.34
2023-02-11T17:50:54.689Z,5.16
2023-02-11T17:53:58.967Z,5.36
2023-02-11T17:57:01.112Z,5.50
2023-02-11T18:00:06.433Z,5.23
2023-02-11T18:03:09.005Z,5.37
2023-02-11T18:06:12.415Z,5.13
2023-02-11T18:09:16.023Z,5.14
2023-02-11T18:12:25.606Z,5.18
2023-02-11T18:15:29.320Z,5.45
2023-02-11T18:18:32.144Z,5.49
2023-02-11T18:21:34.675Z,5.55
2023-02-11T18:24:36.875Z,5.20
2023-02-11T18:27:41.819Z,5.39
2023-02-11T18:30:44.212Z,5.21
2023-02-11T18:33:47.929Z,4.91
2023-02-11T18:36:50.619Z,4.93
2023-02-11T18:39:53.470Z,4.95
2023-02-11T18:42:56.137Z,4.81
2023-02-11T18:45:58.945Z,4.79
2023-02-11T18:49:01.368Z,4.91
2023-02-11T18:52:04.284Z,4.79
2023-02-11T18:55:09.275Z,4.79
2023-02-11T18:58:12.248Z,4.87
2023-02-11T19:01:22.876Z,4.93
2023-02-11T19:04:25.453Z,4.89
2023-02-11T19:07:27.690Z,5.05
2023-02-11T19:10:30.084Z,5.27
2023-02-11T19:13:32.639Z,5.30
2023-02-11T19:16:34.927Z,5.47
2023-02-11T19:19:37.351Z,5.60
2023-02-11T19:22:39.521Z,5.62
2023-02-11T19:25:47.994Z,5.36
2023-02-11T19:28:50.148Z,5.34
2023-02-11T19:31:52.699Z,5.43
2023-02-11T19:34:55.061Z,5.30
2023-02-11T19:37:57.556Z,5.48
2023-02-11T19:41:03.895Z,5.58
2023-02-11T19:44:08.317Z,5.44
2023-02-11T19:47:10.689Z,5.56
2023-02-11T19:50:13.522Z,5.62
2023-02-11T19:53:15.798Z,5.65
2023-02-11T19:56:20.833Z,5.44
2023-02-11T19:59:23.826Z,5.52
2023-02-11T20:02:30.031Z,5.56
2023-02-11T20:05:32.292Z,5.51
2023-02-11T20:08:34.471Z,5.50
2023-02-11T20:11:39.744Z,5.52
2023-02-11T20:14:42.215Z,5.61
2023-02-11T20:17:44.458Z,5.68
2023-02-11T20:20:46.598Z,5.75
2023-02-11T20:24:08.233Z,5.64
2023-02-11T20:27:12.513Z,5.57
2023-02-11T20:30:17.330Z,5.60
2023-02-11T20:33:21.631Z,5.70
2023-02-11T20:36:26.637Z,5.61
2023-02-11T20:39:28.588Z,5.72
2023-02-11T20:42:30.447Z,5.78
2023-02-11T20:45:35.803Z,5.69
2023-02-11T20:48:38.432Z,5.67
2023-02-11T20:51:40.725Z,5.66
2023-02-11T20:54:43.489Z,5.62
2023-02-11T20:57:46.661Z,5.62
2023-02-11T21:00:48.983Z,5.65
2023-02-11T21:03:54.543Z,5.53
2023-02-11T21:06:59.594Z,5.61
2023-02-11T21:10:01.931Z,5.66
2023-02-11T21:13:04.182Z,5.62
2023-02-11T21:16:07.453Z,5.62
2023-02-11T21:19:09.683Z,5.51
2023-02-11T21:22:12.667Z,5.43
2023-02-11T21:25:18.200Z,5.47
2023-02-11T21:28:30.991Z,5.46
2023-02-11T21:31:34.476Z,5.50
2023-02-11T21:34:36.631Z,5.42
2023-02-11T21:37:38.725Z,5.43
2023-02-11T21:40:42.308Z,5.43
2023-02-11T21:43:45.670Z,5.41
2023-02-11T21:46:50.020Z,5.45
2023-02-11T21:49:55.500Z,5.50
2023-02-11T21:52:57.882Z,5.49
2023-02-11T21:56:04.552Z,5.43
2023-02-11T21:59:08.044Z,5.39
2023-02-11T22:02:11.504Z,5.26
2023-02-11T22:05:13.638Z,5.15
2023-02-11T22:08:16.683Z,5.10
2023-02-11T22:11:20.781Z,5.07
2023-02-11T22:14:22.966Z,5.11
2023-02-11T22:17:25.067Z,5.11
2023-02-11T22:20:27.474Z,5.06
2023-02-11T22:23:30.364Z,5.10
2023-02-11T22:26:36.500Z,5.07
2023-02-11T22:29:38.857Z,5.04
2023-02-11T22:32:44.600Z,4.89
2023-02-11T22:35:46.745Z,4.86
2023-02-11T22:38:53.007Z,4.93
2023-02-11T22:41:56.595Z,4.88
2023-02-11T22:44:58.443Z,4.94
2023-02-11T22:48:04.074Z,4.99
2023-02-11T22:51:15.212Z,5.01
2023-02-11T22:54:19.011Z,4.93
2023-02-11T22:57:20.909Z,4.96
2023-02-11T23:00:26.489Z,4.90
2023-02-11T23:03:28.963Z,4.89
2023-02-11T23:06:30.864Z,4.88
2023-02-11T23:09:32.906Z,4.76
2023-02-11T23:12:35.164Z,4.77
2023-02-11T23:15:42.073Z,4.79
2023-02-11T23:18:45.596Z,4.77
2023-02-11T23:21:51.101Z,4.77
2023-02-11T23:24:53.176Z,4.72
2023-02-11T23:27:55.233Z,4.64
2023-02-11T23:30:57.423Z,4.66
2023-02-11T23:34:01.146Z,4.64
2023-02-11T23:37:03.418Z,4.68
2023-02-11T23:40:05.872Z,4.65
2023-02-11T23:43:08.129Z,4.65
2023-02-11T23:46:10.950Z,4.66
2023-02-11T23:49:13.255Z,4.55
2023-02-11T23:52:15.231Z,4.55
2023-02-11T23:55:17.425Z,4.55
2023-02-11T23:58:19.297Z,4.54
